sensor_id;sensor_type;location;lat;lon;timestamp;P1;durP1;ratioP1;P2;durP2;ratioP2
52126;SDS011;38120;53.176;6.614;2023-01-24T00:01:39;25.92;;;13.32;;
52126;SDS011;38120;53.176;6.614;2023-01-24T00:04:05;21.03;;;12.00;;
52126;SDS011;38120;53.176;6.614;2023-01-24T00:06:31;21.43;;;13.23;;
52126;SDS011;38120;53.176;6.614;2023-01-24T00:08:57;17.87;;;11.70;;
52126;SDS011;38120;53.176;6.614;2023-01-24T00:11:25;19.33;;;12.82;;
52126;SDS011;38120;53.176;6.614;2023-01-24T00:13:51;20.40;;;12.87;;
52126;SDS011;38120;53.176;6.614;2023-01-24T00:16:19;18.13;;;12.25;;
52126;SDS011;38120;53.176;6.614;2023-01-24T00:18:48;21.92;;;13.57;;
52126;SDS011;38120;53.176;6.614;2023-01-24T00:21:15;20.77;;;11.98;;
52126;SDS011;38120;53.176;6.614;2023-01-24T00:23:49;22.55;;;13.48;;
52126;SDS011;38120;53.176;6.614;2023-01-24T00:26:19;22.48;;;12.20;;
52126;SDS011;38120;53.176;6.614;2023-01-24T00:28:46;21.65;;;13.30;;
52126;SDS011;38120;53.176;6.614;2023-01-24T00:31:12;22.40;;;13.90;;
52126;SDS011;38120;53.176;6.614;2023-01-24T00:33:39;22.98;;;13.00;;
52126;SDS011;38120;53.176;6.614;2023-01-24T00:36:05;20.60;;;12.43;;
52126;SDS011;38120;53.176;6.614;2023-01-24T00:38:31;21.33;;;13.70;;
52126;SDS011;38120;53.176;6.614;2023-01-24T00:40:59;22.13;;;13.00;;
52126;SDS011;38120;53.176;6.614;2023-01-24T00:43:28;25.88;;;13.95;;
52126;SDS011;38120;53.176;6.614;2023-01-24T00:45:54;19.88;;;13.48;;
52126;SDS011;38120;53.176;6.614;2023-01-24T00:48:25;22.25;;;13.52;;
52126;SDS011;38120;53.176;6.614;2023-01-24T00:50:51;21.70;;;12.70;;
52126;SDS011;38120;53.176;6.614;2023-01-24T00:53:17;23.23;;;13.90;;
52126;SDS011;38120;53.176;6.614;2023-01-24T00:55:44;23.98;;;14.40;;
52126;SDS011;38120;53.176;6.614;2023-01-24T00:58:16;23.17;;;13.30;;
52126;SDS011;38120;53.176;6.614;2023-01-24T01:00:42;20.98;;;13.95;;
52126;SDS011;38120;53.176;6.614;2023-01-24T01:03:12;22.47;;;12.93;;
52126;SDS011;38120;53.176;6.614;2023-01-24T01:05:40;21.20;;;13.63;;
52126;SDS011;38120;53.176;6.614;2023-01-24T01:08:06;20.05;;;14.43;;
52126;SDS011;38120;53.176;6.614;2023-01-24T01:10:32;21.10;;;13.48;;
52126;SDS011;38120;53.176;6.614;2023-01-24T01:12:58;22.10;;;13.27;;
52126;SDS011;38120;53.176;6.614;2023-01-24T01:15:24;24.17;;;14.77;;
52126;SDS011;38120;53.176;6.614;2023-01-24T01:17:50;23.77;;;14.40;;
52126;SDS011;38120;53.176;6.614;2023-01-24T01:20:15;28.50;;;16.00;;
52126;SDS011;38120;53.176;6.614;2023-01-24T01:22:41;21.75;;;16.00;;
52126;SDS011;38120;53.176;6.614;2023-01-24T01:25:13;25.63;;;16.08;;
52126;SDS011;38120;53.176;6.614;2023-01-24T01:27:38;21.25;;;14.05;;
52126;SDS011;38120;53.176;6.614;2023-01-24T01:30:04;20.20;;;13.27;;
52126;SDS011;38120;53.176;6.614;2023-01-24T01:32:31;24.95;;;15.05;;
52126;SDS011;38120;53.176;6.614;2023-01-24T01:34:56;23.00;;;14.15;;
52126;SDS011;38120;53.176;6.614;2023-01-24T01:37:22;24.52;;;14.45;;
52126;SDS011;38120;53.176;6.614;2023-01-24T01:39:49;24.23;;;14.15;;
52126;SDS011;38120;53.176;6.614;2023-01-24T01:42:14;26.67;;;14.63;;
52126;SDS011;38120;53.176;6.614;2023-01-24T01:44:40;24.17;;;14.97;;
52126;SDS011;38120;53.176;6.614;2023-01-24T01:47:19;23.83;;;14.52;;
52126;SDS011;38120;53.176;6.614;2023-01-24T01:50:00;23.25;;;12.98;;
52126;SDS011;38120;53.176;6.614;2023-01-24T01:52:43;24.40;;;15.50;;
52126;SDS011;38120;53.176;6.614;2023-01-24T01:55:21;24.40;;;14.77;;
52126;SDS011;38120;53.176;6.614;2023-01-24T01:58:06;26.08;;;15.38;;
52126;SDS011;38120;53.176;6.614;2023-01-24T02:00:32;22.58;;;15.20;;
52126;SDS011;38120;53.176;6.614;2023-01-24T02:03:03;25.23;;;15.43;;
52126;SDS011;38120;53.176;6.614;2023-01-24T02:05:52;24.63;;;14.65;;
52126;SDS011;38120;53.176;6.614;2023-01-24T02:08:20;24.25;;;14.10;;
52126;SDS011;38120;53.176;6.614;2023-01-24T02:10:47;25.15;;;16.65;;
52126;SDS011;38120;53.176;6.614;2023-01-24T02:13:33;25.90;;;14.93;;
52126;SDS011;38120;53.176;6.614;2023-01-24T02:16:00;27.42;;;15.25;;
52126;SDS011;38120;53.176;6.614;2023-01-24T02:18:32;26.38;;;16.10;;
52126;SDS011;38120;53.176;6.614;2023-01-24T02:21:02;31.38;;;17.73;;
52126;SDS011;38120;53.176;6.614;2023-01-24T02:23:50;28.55;;;15.40;;
52126;SDS011;38120;53.176;6.614;2023-01-24T02:26:21;27.15;;;14.88;;
52126;SDS011;38120;53.176;6.614;2023-01-24T02:28:58;25.40;;;15.35;;
52126;SDS011;38120;53.176;6.614;2023-01-24T02:31:56;24.45;;;14.13;;
52126;SDS011;38120;53.176;6.614;2023-01-24T02:34:27;24.83;;;15.70;;
52126;SDS011;38120;53.176;6.614;2023-01-24T02:36:56;24.27;;;15.75;;
52126;SDS011;38120;53.176;6.614;2023-01-24T02:39:32;29.85;;;15.27;;
52126;SDS011;38120;53.176;6.614;2023-01-24T02:42:05;23.67;;;14.60;;
52126;SDS011;38120;53.176;6.614;2023-01-24T02:44:46;25.27;;;16.13;;
52126;SDS011;38120;53.176;6.614;2023-01-24T02:47:13;24.58;;;14.45;;
52126;SDS011;38120;53.176;6.614;2023-01-24T02:49:39;22.20;;;14.90;;
52126;SDS011;38120;53.176;6.614;2023-01-24T02:52:06;23.10;;;15.77;;
52126;SDS011;38120;53.176;6.614;2023-01-24T02:54:52;22.87;;;13.93;;
52126;SDS011;38120;53.176;6.614;2023-01-24T02:57:18;22.23;;;14.70;;
52126;SDS011;38120;53.176;6.614;2023-01-24T03:00:04;21.15;;;12.55;;
52126;SDS011;38120;53.176;6.614;2023-01-24T03:02:31;22.17;;;12.98;;
52126;SDS011;38120;53.176;6.614;2023-01-24T03:04:57;20.52;;;11.88;;
52126;SDS011;38120;53.176;6.614;2023-01-24T03:07:23;19.60;;;12.53;;
52126;SDS011;38120;53.176;6.614;2023-01-24T03:09:49;18.55;;;11.40;;
52126;SDS011;38120;53.176;6.614;2023-01-24T03:12:14;19.13;;;11.77;;
52126;SDS011;38120;53.176;6.614;2023-01-24T03:14:59;21.70;;;12.93;;
52126;SDS011;38120;53.176;6.614;2023-01-24T03:17:43;20.67;;;12.98;;
52126;SDS011;38120;53.176;6.614;2023-01-24T03:20:27;21.30;;;13.15;;
52126;SDS011;38120;53.176;6.614;2023-01-24T03:23:12;21.55;;;13.57;;
52126;SDS011;38120;53.176;6.614;2023-01-24T03:25:57;24.77;;;15.13;;
52126;SDS011;38120;53.176;6.614;2023-01-24T03:28:41;23.45;;;13.65;;
52126;SDS011;38120;53.176;6.614;2023-01-24T03:31:27;23.33;;;13.05;;
52126;SDS011;38120;53.176;6.614;2023-01-24T03:34:12;25.83;;;15.25;;
52126;SDS011;38120;53.176;6.614;2023-01-24T03:36:57;25.63;;;14.35;;
52126;SDS011;38120;53.176;6.614;2023-01-24T03:39:24;24.00;;;15.20;;
52126;SDS011;38120;53.176;6.614;2023-01-24T03:42:08;21.65;;;13.88;;
52126;SDS011;38120;53.176;6.614;2023-01-24T03:44:34;24.73;;;14.23;;
52126;SDS011;38120;53.176;6.614;2023-01-24T03:46:59;24.73;;;14.30;;
52126;SDS011;38120;53.176;6.614;2023-01-24T03:49:25;22.23;;;14.47;;
52126;SDS011;38120;53.176;6.614;2023-01-24T03:52:09;25.73;;;14.88;;
52126;SDS011;38120;53.176;6.614;2023-01-24T03:54:54;23.20;;;15.10;;
52126;SDS011;38120;53.176;6.614;2023-01-24T03:57:21;23.75;;;14.77;;
52126;SDS011;38120;53.176;6.614;2023-01-24T04:02:13;22.95;;;13.98;;
52126;SDS011;38120;53.176;6.614;2023-01-24T04:04:39;23.95;;;12.77;;
52126;SDS011;38120;53.176;6.614;2023-01-24T04:07:23;19.30;;;12.02;;
52126;SDS011;38120;53.176;6.614;2023-01-24T04:09:49;23.23;;;12.77;;
52126;SDS011;38120;53.176;6.614;2023-01-24T04:12:14;20.80;;;13.03;;
52126;SDS011;38120;53.176;6.614;2023-01-24T04:14:42;19.60;;;12.70;;
52126;SDS011;38120;53.176;6.614;2023-01-24T04:17:08;20.88;;;13.25;;
52126;SDS011;38120;53.176;6.614;2023-01-24T04:19:34;21.17;;;12.45;;
52126;SDS011;38120;53.176;6.614;2023-01-24T04:22:00;17.57;;;11.43;;
52126;SDS011;38120;53.176;6.614;2023-01-24T04:24:25;18.37;;;11.47;;
52126;SDS011;38120;53.176;6.614;2023-01-24T04:26:51;17.90;;;11.13;;
52126;SDS011;38120;53.176;6.614;2023-01-24T04:29:17;18.87;;;11.40;;
52126;SDS011;38120;53.176;6.614;2023-01-24T04:31:42;19.33;;;11.60;;
52126;SDS011;38120;53.176;6.614;2023-01-24T04:34:08;21.10;;;11.60;;
52126;SDS011;38120;53.176;6.614;2023-01-24T04:36:34;16.25;;;11.88;;
52126;SDS011;38120;53.176;6.614;2023-01-24T04:39:00;17.33;;;11.40;;
52126;SDS011;38120;53.176;6.614;2023-01-24T04:41:26;18.90;;;11.60;;
52126;SDS011;38120;53.176;6.614;2023-01-24T04:43:51;19.97;;;11.37;;
52126;SDS011;38120;53.176;6.614;2023-01-24T04:46:17;19.20;;;11.77;;
52126;SDS011;38120;53.176;6.614;2023-01-24T04:48:43;17.10;;;10.70;;
52126;SDS011;38120;53.176;6.614;2023-01-24T04:51:08;21.07;;;11.67;;
52126;SDS011;38120;53.176;6.614;2023-01-24T04:53:37;18.40;;;12.00;;
52126;SDS011;38120;53.176;6.614;2023-01-24T04:56:04;18.17;;;11.45;;
52126;SDS011;38120;53.176;6.614;2023-01-24T04:58:31;20.88;;;12.18;;
52126;SDS011;38120;53.176;6.614;2023-01-24T05:00:57;18.17;;;10.43;;
52126;SDS011;38120;53.176;6.614;2023-01-24T05:03:24;18.55;;;11.60;;
52126;SDS011;38120;53.176;6.614;2023-01-24T05:05:50;20.60;;;12.32;;
52126;SDS011;38120;53.176;6.614;2023-01-24T05:08:16;17.55;;;12.60;;
52126;SDS011;38120;53.176;6.614;2023-01-24T05:10:42;21.43;;;12.83;;
52126;SDS011;38120;53.176;6.614;2023-01-24T05:13:08;23.60;;;14.63;;
52126;SDS011;38120;53.176;6.614;2023-01-24T05:15:34;20.35;;;13.30;;
52126;SDS011;38120;53.176;6.614;2023-01-24T05:18:00;17.27;;;12.48;;
52126;SDS011;38120;53.176;6.614;2023-01-24T05:20:27;25.25;;;14.02;;
52126;SDS011;38120;53.176;6.614;2023-01-24T05:22:55;24.43;;;13.10;;
52126;SDS011;38120;53.176;6.614;2023-01-24T05:25:21;20.77;;;13.52;;
52126;SDS011;38120;53.176;6.614;2023-01-24T05:27:47;25.27;;;13.67;;
52126;SDS011;38120;53.176;6.614;2023-01-24T05:30:13;19.77;;;13.03;;
52126;SDS011;38120;53.176;6.614;2023-01-24T05:32:39;19.77;;;13.18;;
52126;SDS011;38120;53.176;6.614;2023-01-24T05:35:05;22.92;;;14.18;;
52126;SDS011;38120;53.176;6.614;2023-01-24T05:37:31;21.08;;;13.98;;
52126;SDS011;38120;53.176;6.614;2023-01-24T05:39:57;21.70;;;14.03;;
52126;SDS011;38120;53.176;6.614;2023-01-24T05:42:23;24.93;;;15.93;;
52126;SDS011;38120;53.176;6.614;2023-01-24T05:44:48;21.40;;;15.07;;
52126;SDS011;38120;53.176;6.614;2023-01-24T05:47:14;23.17;;;15.83;;
52126;SDS011;38120;53.176;6.614;2023-01-24T05:49:40;24.77;;;16.40;;
52126;SDS011;38120;53.176;6.614;2023-01-24T05:52:06;26.35;;;16.67;;
52126;SDS011;38120;53.176;6.614;2023-01-24T05:54:32;24.13;;;14.33;;
52126;SDS011;38120;53.176;6.614;2023-01-24T05:56:57;24.13;;;15.47;;
52126;SDS011;38120;53.176;6.614;2023-01-24T05:59:23;25.07;;;15.20;;
52126;SDS011;38120;53.176;6.614;2023-01-24T06:01:48;24.23;;;15.40;;
52126;SDS011;38120;53.176;6.614;2023-01-24T06:04:14;25.83;;;15.67;;
52126;SDS011;38120;53.176;6.614;2023-01-24T06:06:42;27.57;;;15.13;;
52126;SDS011;38120;53.176;6.614;2023-01-24T06:09:08;24.75;;;15.63;;
52126;SDS011;38120;53.176;6.614;2023-01-24T06:11:34;23.02;;;14.90;;
52126;SDS011;38120;53.176;6.614;2023-01-24T06:14:00;24.77;;;15.17;;
52126;SDS011;38120;53.176;6.614;2023-01-24T06:16:26;26.37;;;15.13;;
52126;SDS011;38120;53.176;6.614;2023-01-24T06:18:53;24.75;;;15.88;;
52126;SDS011;38120;53.176;6.614;2023-01-24T06:24:21;25.42;;;15.98;;
52126;SDS011;38120;53.176;6.614;2023-01-24T06:26:51;26.08;;;15.32;;
52126;SDS011;38120;53.176;6.614;2023-01-24T06:37:36;24.10;;;15.20;;
52126;SDS011;38120;53.176;6.614;2023-01-24T06:40:11;24.35;;;15.73;;
52126;SDS011;38120;53.176;6.614;2023-01-24T06:42:39;25.38;;;16.40;;
52126;SDS011;38120;53.176;6.614;2023-01-24T06:45:06;23.27;;;16.15;;
52126;SDS011;38120;53.176;6.614;2023-01-24T06:47:34;25.20;;;15.73;;
52126;SDS011;38120;53.176;6.614;2023-01-24T06:50:00;30.25;;;17.88;;
52126;SDS011;38120;53.176;6.614;2023-01-24T06:52:26;24.65;;;15.88;;
52126;SDS011;38120;53.176;6.614;2023-01-24T06:54:52;24.63;;;15.70;;
52126;SDS011;38120;53.176;6.614;2023-01-24T06:57:18;25.45;;;16.02;;
52126;SDS011;38120;53.176;6.614;2023-01-24T06:59:44;25.93;;;15.07;;
52126;SDS011;38120;53.176;6.614;2023-01-24T07:02:09;22.47;;;14.90;;
52126;SDS011;38120;53.176;6.614;2023-01-24T07:04:35;26.33;;;15.10;;
52126;SDS011;38120;53.176;6.614;2023-01-24T07:07:02;26.03;;;14.77;;
52126;SDS011;38120;53.176;6.614;2023-01-24T07:09:28;24.42;;;15.48;;
52126;SDS011;38120;53.176;6.614;2023-01-24T07:11:54;23.57;;;16.87;;
52126;SDS011;38120;53.176;6.614;2023-01-24T07:14:22;22.20;;;14.43;;
52126;SDS011;38120;53.176;6.614;2023-01-24T07:16:48;25.23;;;15.10;;
52126;SDS011;38120;53.176;6.614;2023-01-24T07:19:16;21.95;;;15.13;;
52126;SDS011;38120;53.176;6.614;2023-01-24T07:21:50;20.55;;;15.45;;
52126;SDS011;38120;53.176;6.614;2023-01-24T07:24:28;20.65;;;14.93;;
52126;SDS011;38120;53.176;6.614;2023-01-24T07:26:55;23.15;;;13.90;;
52126;SDS011;38120;53.176;6.614;2023-01-24T07:29:21;21.67;;;14.05;;
52126;SDS011;38120;53.176;6.614;2023-01-24T07:31:47;20.27;;;14.13;;
52126;SDS011;38120;53.176;6.614;2023-01-24T07:34:14;23.88;;;14.30;;
52126;SDS011;38120;53.176;6.614;2023-01-24T07:36:42;19.67;;;13.85;;
52126;SDS011;38120;53.176;6.614;2023-01-24T07:39:11;20.50;;;14.10;;
52126;SDS011;38120;53.176;6.614;2023-01-24T07:41:37;24.55;;;14.23;;
52126;SDS011;38120;53.176;6.614;2023-01-24T07:44:07;19.95;;;14.25;;
52126;SDS011;38120;53.176;6.614;2023-01-24T07:46:33;19.53;;;13.20;;
52126;SDS011;38120;53.176;6.614;2023-01-24T07:48:59;21.47;;;13.97;;
52126;SDS011;38120;53.176;6.614;2023-01-24T07:51:25;17.83;;;12.47;;
52126;SDS011;38120;53.176;6.614;2023-01-24T07:53:51;23.38;;;15.00;;
52126;SDS011;38120;53.176;6.614;2023-01-24T07:56:16;24.43;;;16.00;;
52126;SDS011;38120;53.176;6.614;2023-01-24T07:58:42;23.55;;;15.13;;
52126;SDS011;38120;53.176;6.614;2023-01-24T08:01:08;22.05;;;14.43;;
52126;SDS011;38120;53.176;6.614;2023-01-24T08:03:34;23.55;;;15.23;;
52126;SDS011;38120;53.176;6.614;2023-01-24T08:06:00;23.40;;;13.93;;
52126;SDS011;38120;53.176;6.614;2023-01-24T08:08:29;18.52;;;14.20;;
52126;SDS011;38120;53.176;6.614;2023-01-24T08:10:57;19.87;;;13.43;;
52126;SDS011;38120;53.176;6.614;2023-01-24T08:13:23;20.05;;;13.00;;
52126;SDS011;38120;53.176;6.614;2023-01-24T08:15:49;17.53;;;13.10;;
52126;SDS011;38120;53.176;6.614;2023-01-24T08:18:14;22.43;;;12.53;;
52126;SDS011;38120;53.176;6.614;2023-01-24T08:20:40;18.85;;;12.30;;
52126;SDS011;38120;53.176;6.614;2023-01-24T08:23:06;19.77;;;13.83;;
52126;SDS011;38120;53.176;6.614;2023-01-24T08:25:31;19.07;;;13.07;;
52126;SDS011;38120;53.176;6.614;2023-01-24T08:27:58;17.05;;;12.95;;
52126;SDS011;38120;53.176;6.614;2023-01-24T08:30:24;20.47;;;13.60;;
52126;SDS011;38120;53.176;6.614;2023-01-24T08:33:00;17.90;;;12.00;;
52126;SDS011;38120;53.176;6.614;2023-01-24T08:35:42;22.20;;;14.25;;
52126;SDS011;38120;53.176;6.614;2023-01-24T08:38:09;19.52;;;12.30;;
52126;SDS011;38120;53.176;6.614;2023-01-24T08:40:41;18.65;;;13.93;;
52126;SDS011;38120;53.176;6.614;2023-01-24T08:43:07;19.15;;;13.27;;
52126;SDS011;38120;53.176;6.614;2023-01-24T08:45:33;18.25;;;12.50;;
52126;SDS011;38120;53.176;6.614;2023-01-24T08:47:59;19.37;;;13.63;;
52126;SDS011;38120;53.176;6.614;2023-01-24T08:50:40;20.30;;;13.02;;
52126;SDS011;38120;53.176;6.614;2023-01-24T08:53:06;18.93;;;12.27;;
52126;SDS011;38120;53.176;6.614;2023-01-24T08:55:37;21.85;;;13.68;;
52126;SDS011;38120;53.176;6.614;2023-01-24T08:58:03;17.67;;;12.37;;
52126;SDS011;38120;53.176;6.614;2023-01-24T09:00:32;18.85;;;13.60;;
52126;SDS011;38120;53.176;6.614;2023-01-24T09:02:57;18.73;;;11.47;;
52126;SDS011;38120;53.176;6.614;2023-01-24T09:05:29;20.38;;;13.23;;
52126;SDS011;38120;53.176;6.614;2023-01-24T09:08:01;18.58;;;12.38;;
52126;SDS011;38120;53.176;6.614;2023-01-24T09:10:27;16.65;;;11.73;;
52126;SDS011;38120;53.176;6.614;2023-01-24T09:12:53;17.50;;;11.77;;
52126;SDS011;38120;53.176;6.614;2023-01-24T09:15:19;19.50;;;12.43;;
52126;SDS011;38120;53.176;6.614;2023-01-24T09:17:44;16.17;;;11.63;;
52126;SDS011;38120;53.176;6.614;2023-01-24T09:20:10;16.00;;;10.23;;
52126;SDS011;38120;53.176;6.614;2023-01-24T09:22:37;16.10;;;9.63;;
52126;SDS011;38120;53.176;6.614;2023-01-24T09:25:02;14.27;;;9.40;;
52126;SDS011;38120;53.176;6.614;2023-01-24T09:27:37;14.88;;;9.73;;
52126;SDS011;38120;53.176;6.614;2023-01-24T09:30:05;14.65;;;10.20;;
52126;SDS011;38120;53.176;6.614;2023-01-24T09:32:32;19.15;;;10.65;;
52126;SDS011;38120;53.176;6.614;2023-01-24T09:34:57;19.20;;;11.57;;
52126;SDS011;38120;53.176;6.614;2023-01-24T09:37:23;15.90;;;10.17;;
52126;SDS011;38120;53.176;6.614;2023-01-24T09:39:49;17.90;;;10.13;;
52126;SDS011;38120;53.176;6.614;2023-01-24T09:45:12;17.38;;;9.07;;
52126;SDS011;38120;53.176;6.614;2023-01-24T09:50:23;17.23;;;10.27;;
52126;SDS011;38120;53.176;6.614;2023-01-24T09:52:55;14.00;;;9.27;;
52126;SDS011;38120;53.176;6.614;2023-01-24T09:58:06;15.85;;;9.50;;
52126;SDS011;38120;53.176;6.614;2023-01-24T10:00:54;15.35;;;8.45;;
52126;SDS011;38120;53.176;6.614;2023-01-24T10:03:20;16.33;;;9.00;;
52126;SDS011;38120;53.176;6.614;2023-01-24T10:05:49;15.73;;;9.63;;
52126;SDS011;38120;53.176;6.614;2023-01-24T10:08:19;15.00;;;8.93;;
52126;SDS011;38120;53.176;6.614;2023-01-24T10:25:23;11.32;;;8.38;;
52126;SDS011;38120;53.176;6.614;2023-01-24T10:27:56;14.93;;;8.35;;
52126;SDS011;38120;53.176;6.614;2023-01-24T10:30:45;15.43;;;8.75;;
52126;SDS011;38120;53.176;6.614;2023-01-24T10:33:26;13.38;;;8.77;;
52126;SDS011;38120;53.176;6.614;2023-01-24T10:36:46;14.73;;;9.18;;
52126;SDS011;38120;53.176;6.614;2023-01-24T10:38:52;13.85;;;9.10;;
52126;SDS011;38120;53.176;6.614;2023-01-24T10:41:19;16.60;;;9.23;;
52126;SDS011;38120;53.176;6.614;2023-01-24T10:43:56;14.70;;;9.30;;
52126;SDS011;38120;53.176;6.614;2023-01-24T10:49:30;13.80;;;8.73;;
52126;SDS011;38120;53.176;6.614;2023-01-24T10:52:10;15.98;;;9.48;;
52126;SDS011;38120;53.176;6.614;2023-01-24T10:54:51;15.85;;;8.40;;
52126;SDS011;38120;53.176;6.614;2023-01-24T11:00:30;16.63;;;9.23;;
52126;SDS011;38120;53.176;6.614;2023-01-24T11:03:01;14.70;;;8.90;;
52126;SDS011;38120;53.176;6.614;2023-01-24T11:05:44;15.70;;;9.50;;
52126;SDS011;38120;53.176;6.614;2023-01-24T11:08:15;16.02;;;9.20;;
52126;SDS011;38120;53.176;6.614;2023-01-24T11:10:46;14.23;;;9.00;;
52126;SDS011;38120;53.176;6.614;2023-01-24T11:16:02;14.70;;;8.88;;
52126;SDS011;38120;53.176;6.614;2023-01-24T11:18:30;17.10;;;9.45;;
52126;SDS011;38120;53.176;6.614;2023-01-24T11:21:11;14.68;;;9.70;;
52126;SDS011;38120;53.176;6.614;2023-01-24T11:23:42;16.45;;;8.10;;
52126;SDS011;38120;53.176;6.614;2023-01-24T11:28:55;15.75;;;9.80;;
52126;SDS011;38120;53.176;6.614;2023-01-24T11:31:26;14.38;;;8.98;;
52126;SDS011;38120;53.176;6.614;2023-01-24T11:34:38;13.10;;;8.90;;
52126;SDS011;38120;53.176;6.614;2023-01-24T11:39:58;15.43;;;9.00;;
52126;SDS011;38120;53.176;6.614;2023-01-24T11:48:22;14.65;;;9.07;;
52126;SDS011;38120;53.176;6.614;2023-01-24T11:53:52;17.67;;;10.10;;
52126;SDS011;38120;53.176;6.614;2023-01-24T12:10:03;16.45;;;9.77;;
52126;SDS011;38120;53.176;6.614;2023-01-24T12:13:03;14.48;;;9.50;;
52126;SDS011;38120;53.176;6.614;2023-01-24T12:21:05;14.38;;;8.98;;
52126;SDS011;38120;53.176;6.614;2023-01-24T12:23:38;16.63;;;10.50;;
52126;SDS011;38120;53.176;6.614;2023-01-24T12:26:14;15.63;;;9.80;;
52126;SDS011;38120;53.176;6.614;2023-01-24T12:28:51;16.20;;;10.50;;
52126;SDS011;38120;53.176;6.614;2023-01-24T12:31:46;16.67;;;10.25;;
52126;SDS011;38120;53.176;6.614;2023-01-24T12:37:06;15.13;;;8.98;;
52126;SDS011;38120;53.176;6.614;2023-01-24T12:39:59;14.18;;;9.73;;
52126;SDS011;38120;53.176;6.614;2023-01-24T12:45:30;18.15;;;10.40;;
52126;SDS011;38120;53.176;6.614;2023-01-24T12:56:54;19.13;;;10.25;;
52126;SDS011;38120;53.176;6.614;2023-01-24T12:59:25;18.20;;;11.35;;
52126;SDS011;38120;53.176;6.614;2023-01-24T13:02:06;16.88;;;10.57;;
52126;SDS011;38120;53.176;6.614;2023-01-24T13:08:06;16.20;;;10.70;;
52126;SDS011;38120;53.176;6.614;2023-01-24T13:13:59;15.48;;;9.73;;
52126;SDS011;38120;53.176;6.614;2023-01-24T13:16:56;16.77;;;10.23;;
52126;SDS011;38120;53.176;6.614;2023-01-24T13:22:31;16.95;;;10.27;;
52126;SDS011;38120;53.176;6.614;2023-01-24T13:30:43;17.13;;;11.40;;
52126;SDS011;38120;53.176;6.614;2023-01-24T13:33:38;20.00;;;11.05;;
52126;SDS011;38120;53.176;6.614;2023-01-24T13:36:26;18.05;;;10.57;;
52126;SDS011;38120;53.176;6.614;2023-01-24T13:38:58;17.70;;;11.23;;
52126;SDS011;38120;53.176;6.614;2023-01-24T13:44:01;18.83;;;11.70;;
52126;SDS011;38120;53.176;6.614;2023-01-24T13:51:53;16.83;;;10.75;;
52126;SDS011;38120;53.176;6.614;2023-01-24T13:54:39;16.15;;;10.38;;
52126;SDS011;38120;53.176;6.614;2023-01-24T14:00:23;20.20;;;12.45;;
52126;SDS011;38120;53.176;6.614;2023-01-24T14:07:56;17.80;;;11.18;;
52126;SDS011;38120;53.176;6.614;2023-01-24T14:16:12;20.42;;;11.07;;
52126;SDS011;38120;53.176;6.614;2023-01-24T14:22:02;19.30;;;12.23;;
52126;SDS011;38120;53.176;6.614;2023-01-24T14:24:35;18.13;;;11.23;;
52126;SDS011;38120;53.176;6.614;2023-01-24T14:27:25;20.23;;;11.98;;
52126;SDS011;38120;53.176;6.614;2023-01-24T14:32:49;23.77;;;15.65;;
52126;SDS011;38120;53.176;6.614;2023-01-24T14:38:31;21.13;;;13.48;;
52126;SDS011;38120;53.176;6.614;2023-01-24T14:40:56;20.53;;;13.87;;
52126;SDS011;38120;53.176;6.614;2023-01-24T14:43:32;22.20;;;13.90;;
52126;SDS011;38120;53.176;6.614;2023-01-24T14:46:11;20.10;;;13.07;;
52126;SDS011;38120;53.176;6.614;2023-01-24T14:48:42;23.83;;;15.50;;
52126;SDS011;38120;53.176;6.614;2023-01-24T14:51:12;21.30;;;12.83;;
52126;SDS011;38120;53.176;6.614;2023-01-24T14:53:45;18.80;;;12.40;;
52126;SDS011;38120;53.176;6.614;2023-01-24T14:56:15;20.48;;;13.25;;
52126;SDS011;38120;53.176;6.614;2023-01-24T14:58:42;24.77;;;12.80;;
52126;SDS011;38120;53.176;6.614;2023-01-24T15:03:52;22.33;;;14.35;;
52126;SDS011;38120;53.176;6.614;2023-01-24T15:06:20;21.05;;;14.75;;
52126;SDS011;38120;53.176;6.614;2023-01-24T15:11:20;20.08;;;13.50;;
52126;SDS011;38120;53.176;6.614;2023-01-24T15:13:58;21.73;;;13.65;;
52126;SDS011;38120;53.176;6.614;2023-01-24T15:19:03;23.33;;;13.68;;
52126;SDS011;38120;53.176;6.614;2023-01-24T15:21:45;23.70;;;14.10;;
52126;SDS011;38120;53.176;6.614;2023-01-24T15:24:22;22.77;;;14.35;;
52126;SDS011;38120;53.176;6.614;2023-01-24T15:26:53;21.95;;;14.73;;
52126;SDS011;38120;53.176;6.614;2023-01-24T15:40:30;22.73;;;13.95;;
52126;SDS011;38120;53.176;6.614;2023-01-24T15:42:57;21.00;;;14.77;;
52126;SDS011;38120;53.176;6.614;2023-01-24T15:45:45;23.15;;;14.98;;
52126;SDS011;38120;53.176;6.614;2023-01-24T15:48:55;22.02;;;14.95;;
52126;SDS011;38120;53.176;6.614;2023-01-24T15:51:30;23.48;;;15.70;;
52126;SDS011;38120;53.176;6.614;2023-01-24T15:53:58;26.55;;;17.23;;
52126;SDS011;38120;53.176;6.614;2023-01-24T15:56:24;25.47;;;15.17;;
52126;SDS011;38120;53.176;6.614;2023-01-24T15:58:50;24.27;;;15.38;;
52126;SDS011;38120;53.176;6.614;2023-01-24T16:01:26;23.63;;;16.15;;
52126;SDS011;38120;53.176;6.614;2023-01-24T16:03:55;25.75;;;15.77;;
52126;SDS011;38120;53.176;6.614;2023-01-24T16:06:21;24.83;;;14.93;;
52126;SDS011;38120;53.176;6.614;2023-01-24T16:08:46;24.53;;;13.93;;
52126;SDS011;38120;53.176;6.614;2023-01-24T16:11:12;25.00;;;14.97;;
52126;SDS011;38120;53.176;6.614;2023-01-24T16:13:41;22.30;;;15.17;;
52126;SDS011;38120;53.176;6.614;2023-01-24T16:16:13;20.27;;;13.32;;
52126;SDS011;38120;53.176;6.614;2023-01-24T16:18:40;18.83;;;12.18;;
52126;SDS011;38120;53.176;6.614;2023-01-24T16:21:09;21.38;;;13.18;;
52126;SDS011;38120;53.176;6.614;2023-01-24T16:23:35;21.92;;;13.40;;
52126;SDS011;38120;53.176;6.614;2023-01-24T16:26:00;24.63;;;15.77;;
52126;SDS011;38120;53.176;6.614;2023-01-24T16:28:26;21.73;;;14.00;;
52126;SDS011;38120;53.176;6.614;2023-01-24T16:31:01;23.05;;;13.43;;
52126;SDS011;38120;53.176;6.614;2023-01-24T16:33:28;21.52;;;13.88;;
52126;SDS011;38120;53.176;6.614;2023-01-24T16:35:53;21.70;;;13.10;;
52126;SDS011;38120;53.176;6.614;2023-01-24T16:38:19;21.57;;;12.70;;
52126;SDS011;38120;53.176;6.614;2023-01-24T16:40:45;22.70;;;14.10;;
52126;SDS011;38120;53.176;6.614;2023-01-24T16:43:18;17.45;;;11.18;;
52126;SDS011;38120;53.176;6.614;2023-01-24T16:45:48;19.60;;;11.85;;
52126;SDS011;38120;53.176;6.614;2023-01-24T16:48:16;21.95;;;12.27;;
52126;SDS011;38120;53.176;6.614;2023-01-24T16:50:43;21.80;;;13.60;;
52126;SDS011;38120;53.176;6.614;2023-01-24T16:53:10;18.05;;;12.25;;
52126;SDS011;38120;53.176;6.614;2023-01-24T16:55:37;18.95;;;12.20;;
52126;SDS011;38120;53.176;6.614;2023-01-24T16:58:04;22.10;;;12.57;;
52126;SDS011;38120;53.176;6.614;2023-01-24T17:00:31;20.63;;;13.43;;
52126;SDS011;38120;53.176;6.614;2023-01-24T17:02:58;22.33;;;14.45;;
52126;SDS011;38120;53.176;6.614;2023-01-24T17:05:24;18.20;;;12.18;;
52126;SDS011;38120;53.176;6.614;2023-01-24T17:07:52;22.55;;;12.50;;
52126;SDS011;38120;53.176;6.614;2023-01-24T17:10:21;20.77;;;13.73;;
52126;SDS011;38120;53.176;6.614;2023-01-24T17:12:48;22.25;;;13.23;;
52126;SDS011;38120;53.176;6.614;2023-01-24T17:15:15;25.25;;;14.90;;
52126;SDS011;38120;53.176;6.614;2023-01-24T17:17:41;19.20;;;12.82;;
52126;SDS011;38120;53.176;6.614;2023-01-24T17:20:08;20.98;;;13.02;;
52126;SDS011;38120;53.176;6.614;2023-01-24T17:22:35;21.33;;;15.10;;